Startpagina
METAR-TAF:

METAR-TAF

Vliegvelden :

Luchthaven Riga

Riga, Letland

breedte: 56-55N, lengte: 023-58E, hoogte: 10 m

Actueel weer

Dit bericht is 13 minuten geleden gemaakt, om 20:20 UTC
Weinig wind
Temperatuur 7°C
Vochtigheid 61%
Druk 1028 hPa
Zicht 10 km of meer
geen wolken onder 1500 m en geen cumulonimbus

METAR: EVRA 222020Z 00000KT CAVOK 07/00 Q1028 NOSIG

Tijdstip: 23:33 (20:33 UTC)

Verwachting

Dit bericht is 3 uur en het 32 minuten geleden gemaakt, om 17:01 UTC
Verwachting geldig van 22 om 18 UTC tot 23 om 18 UTC
Wind 2 kt uit variabele richting
Zicht 10 km of meer
geen wolken onder 1500 m en geen cumulonimbus
Kans 40% :
Tijdelijke
van 23 om 00 UTC tot 23 om 04 UTC
Zicht: 1500 m
nevel
Wijzigt naar
van 23 om 07 UTC tot 23 om 09 UTC
Wind 12 kt uit het zuiden

TAF: EVRA 221701Z 2218/2318 VRB02KT CAVOK PROB40 TEMPO 2300/2304 1500 BR BECMG 2307/2309 17012KT

Waarnemingen en weersverwachtingen van meer dan 4000 vliegvelden (METAR en TAF).

De beschikbare stations zijn de gele en rode punten op de kaart.

Ga met uw muis naar het station om de naam te zien.

Klik dan om waarnemingen en weersverwachtingen te zien.

kaart wijzigen: klik op de groene knoppen met een zwart kruis om in te zoomen, op de groene knop met een streepje om uit te zoomen of op de groene pijlen voor aangrenzende kaarten.


METAR-TAF: